Urb El Recreo, Puerto Rico
Current Conditions -  °F | °C
As of 4:53 AM on Thursday 27 Nov 2014 (Local Time) from TJNR Reporting Station
Clear Clear  
Wind Chill: 79°   Ceiling: Unl
Heat Index: 81°   Visibility: 10mi
Dew Point: 65°   Wind: 8mph
Humidity: 62%   Direction: 70°ENE
Pressure: 29.99"   Gusts: NA
Location:  18.1494°N, 65.8294°W
Report Text: TJNR 270853Z AUTO 07007KT 10SM CLR 26/18 A2999 RMK AO2 SLP156 T02610183 55004 $
Loading
Personal Weather Stations






























Interactive Weather Map New forecast layout! Learn more

10-Day Weather Forecast

Advertisements
Track Severe Weather on mobile